Terminal Aerodrome Forecast
Issued by NWS Wichita, KS

Home | Current Version | Previous Version | Text Only | Print | Product List | Glossary Off
Versions: 1 2 3 4 5 6 7 8 9 10 11 12 13 14 15

000
FTUS43 KICT 201120
TAFICT
TAF
KICT 201120Z 2012/2112 29016G22KT P6SM BKN014
     FM201500 30014KT P6SM BKN020
     FM201700 29014KT P6SM BKN035
     FM201800 29014KT P6SM SCT060
     FM210200 31008KT P6SM FEW250
     FM210500 27004KT P6SM SKC=

USA.gov is the U.S. government's official web portal to all federal, state and local government web resources and services.